Time;durP1;ratioP1;P1;durP2;ratioP2;P2;SDS_P1;SDS_P2;PMS_P1;PMS_P2;Temp;Humidity;BMP_temperature;BMP_pressure;BME280_temperature;BME280_humidity;BME280_pressure;Samples;Min_cycle;Max_cycle;Signal;HPM_P1;HPM_P2
2021/06/22 00:00:18;;;;;;;2.67;2.47;;;16.60;1.00;17.00;100131.00;;;;5053733;28;20482;-77
2021/06/22 00:02:47;;;;;;;3.13;2.93;;;16.60;1.00;17.10;100138.00;;;;5053136;28;20510;-77
2021/06/22 00:05:17;;;;;;;2.80;2.60;;;16.60;1.00;17.00;100166.00;;;;5053793;28;20448;-77
2021/06/22 00:07:47;;;;;;;3.17;2.50;;;16.70;1.00;17.10;100133.00;;;;5053151;28;20447;-77
2021/06/22 00:10:18;;;;;;;2.80;2.60;;;16.70;1.00;17.20;100179.00;;;;5049367;28;20459;-77
2021/06/22 00:12:46;;;;;;;3.23;2.93;;;16.80;1.00;17.30;100185.00;;;;5052194;28;20504;-77
2021/06/22 00:15:18;;;;;;;2.80;2.60;;;17.00;1.00;17.40;100156.00;;;;5047524;28;20546;-77
2021/06/22 00:17:49;;;;;;;4.73;2.87;;;16.90;1.00;17.40;100162.00;;;;5045564;28;20455;-77
2021/06/22 00:20:22;;;;;;;2.53;2.33;;;16.90;1.00;17.30;100168.00;;;;5048260;28;20455;-77
2021/06/22 00:22:55;;;;;;;2.53;2.33;;;16.90;1.00;17.30;100164.00;;;;5067775;28;20537;-77
2021/06/22 00:25:35;;;;;;;5.77;2.57;;;16.90;1.00;17.30;100108.00;;;;5052475;28;20558;-77
2021/06/22 00:28:15;;;;;;;2.87;2.17;;;16.80;1.00;17.20;100146.00;;;;5065540;28;20456;-77
2021/06/22 00:30:43;;;;;;;2.53;2.10;;;16.70;1.00;17.00;100056.00;;;;5053665;28;20454;-77
2021/06/22 00:33:12;;;;;;;2.20;2.00;;;16.70;1.00;17.00;100144.00;;;;5047122;28;20475;-77
2021/06/22 00:35:40;;;;;;;2.30;1.90;;;16.70;1.00;16.90;100148.00;;;;5065911;28;20459;-77
2021/06/22 00:38:10;;;;;;;2.10;1.70;;;16.50;1.00;16.90;100154.00;;;;5046911;28;20449;-75
2021/06/22 00:40:38;;;;;;;2.17;1.97;;;16.50;1.00;16.90;100145.00;;;;5051181;28;20452;-77
2021/06/22 00:43:06;;;;;;;2.43;2.00;;;16.60;1.00;16.90;100144.00;;;;5070214;28;20520;-77
2021/06/22 00:45:36;;;;;;;1.93;1.53;;;16.50;1.00;16.80;100130.00;;;;5036329;28;20438;-77
2021/06/22 00:48:09;;;;;;;1.47;1.30;;;16.50;1.00;16.80;100142.00;;;;5049423;28;20443;-77
2021/06/22 00:50:38;;;;;;;2.47;1.33;;;16.50;1.00;16.80;100110.00;;;;5050133;28;20448;-77
2021/06/22 00:53:09;;;;;;;1.90;1.43;;;16.40;1.00;16.70;100109.00;;;;5062677;28;20475;-77
2021/06/22 00:55:39;;;;;;;1.93;1.27;;;16.40;1.00;16.80;100130.00;;;;5051697;28;20463;-77
2021/06/22 00:58:33;;;;;;;1.47;1.30;;;16.40;1.00;16.80;100080.00;;;;5047201;28;20448;-75
2021/06/22 01:01:02;;;;;;;2.20;1.40;;;16.40;1.00;16.80;100114.00;;;;5064888;28;20509;-75
2021/06/22 01:03:30;;;;;;;3.33;1.40;;;16.40;1.00;16.70;100088.00;;;;5045911;28;20517;-76
2021/06/22 01:06:05;;;;;;;2.00;1.40;;;16.30;1.00;16.70;100093.00;;;;5062612;28;20463;-76
2021/06/22 01:08:38;;;;;;;2.53;1.07;;;16.30;1.00;16.60;100062.00;;;;5042657;28;20467;-76
2021/06/22 01:11:08;;;;;;;2.00;1.40;;;16.20;1.00;16.50;100088.00;;;;5047123;28;20506;-76
2021/06/22 01:13:37;;;;;;;1.40;1.10;;;16.20;1.00;16.50;100042.00;;;;5042876;28;20468;-76
2021/06/22 01:16:06;;;;;;;1.37;1.10;;;16.20;1.00;16.50;100087.00;;;;5065018;28;20452;-76
2021/06/22 01:18:37;;;;;;;1.67;1.30;;;16.20;1.00;16.50;100075.00;;;;5042422;28;20926;-76
2021/06/22 01:21:29;;;;;;;1.90;1.23;;;16.20;1.00;16.50;100073.00;;;;5060785;28;20457;-76
2021/06/22 01:24:14;;;;;;;1.70;1.17;;;16.20;1.00;16.60;100061.00;;;;5058577;28;20463;-76
2021/06/22 01:26:48;;;;;;;1.93;1.30;;;16.30;1.00;16.60;100066.00;;;;5039865;28;20456;-76
2021/06/22 01:29:16;;;;;;;1.37;1.03;;;16.20;1.00;16.60;100047.00;;;;5063142;28;20483;-76
2021/06/22 01:31:46;;;;;;;1.80;1.20;;;16.20;1.00;16.60;100078.00;;;;5044798;28;20566;-76
2021/06/22 01:34:15;;;;;;;2.27;1.20;;;16.20;1.00;16.60;100062.00;;;;5047389;28;20468;-76
2021/06/22 01:36:46;;;;;;;1.70;1.20;;;16.10;1.00;16.50;100075.00;;;;5065803;28;20499;-76
2021/06/22 01:39:16;;;;;;;1.33;1.00;;;16.10;1.00;16.60;100079.00;;;;5048779;28;20457;-76
2021/06/22 01:41:45;;;;;;;2.77;1.17;;;16.10;1.00;16.60;100028.00;;;;5061429;28;20469;-77
2021/06/22 01:44:14;;;;;;;2.17;0.90;;;16.10;1.00;16.60;100089.00;;;;5040591;28;20457;-76
2021/06/22 01:46:44;;;;;;;2.77;1.00;;;16.20;1.00;16.70;100061.00;;;;5047794;28;21048;-76
2021/06/22 01:49:12;;;;;;;1.30;0.97;;;16.20;1.00;16.70;100068.00;;;;5064352;28;20539;-75
2021/06/22 01:51:45;;;;;;;1.40;0.90;;;16.20;1.00;16.70;100060.00;;;;5066278;28;20468;-76
2021/06/22 01:54:15;;;;;;;1.30;0.90;;;16.30;1.00;16.80;100064.00;;;;5051303;28;20827;-76
2021/06/22 01:56:48;;;;;;;2.27;1.30;;;16.30;1.00;16.80;100043.00;;;;5072219;28;20527;-76
2021/06/22 01:59:22;;;;;;;1.53;0.93;;;16.30;1.00;16.80;100064.00;;;;5076119;28;20451;-76
2021/06/22 02:02:03;;;;;;;2.30;1.00;;;16.30;1.00;16.80;100060.00;;;;5049852;28;20480;-76
2021/06/22 02:04:51;;;;;;;1.33;0.93;;;16.30;1.00;16.80;100075.00;;;;5060576;28;20528;-76
2021/06/22 02:07:23;;;;;;;2.13;0.87;;;16.30;1.00;16.80;100052.00;;;;5069175;28;20448;-76
2021/06/22 02:10:29;;;;;;;1.33;0.90;;;16.20;1.00;16.80;100051.00;;;;5071117;28;20436;-77
2021/06/22 02:13:11;;;;;;;1.20;0.90;;;16.20;1.00;16.80;100051.00;;;;5063092;28;20464;-76
2021/06/22 02:15:53;;;;;;;2.40;1.10;;;16.30;1.00;16.80;100088.00;;;;5073400;28;20493;-75
2021/06/22 02:18:21;;;;;;;1.10;0.70;;;16.30;1.00;16.80;100061.00;;;;5050115;28;20555;-76
2021/06/22 02:20:50;;;;;;;1.60;0.90;;;16.30;1.00;16.80;100114.00;;;;5055166;28;20443;-76
2021/06/22 02:23:20;;;;;;;1.60;0.90;;;16.30;1.00;16.80;100095.00;;;;5053272;28;20463;-75
2021/06/22 02:25:52;;;;;;;1.00;0.60;;;16.20;1.00;16.70;100126.00;;;;5054602;28;20452;-76
2021/06/22 02:28:22;;;;;;;1.70;0.90;;;16.30;1.00;16.70;100110.00;;;;5051382;28;20456;-75
2021/06/22 02:30:53;;;;;;;1.30;0.80;;;16.20;1.00;16.70;100129.00;;;;5062763;28;20456;-75
2021/06/22 02:33:23;;;;;;;1.97;0.90;;;16.20;1.00;16.70;100127.00;;;;5044972;28;20459;-76
2021/06/22 02:35:55;;;;;;;1.30;0.90;;;16.20;1.00;16.70;100140.00;;;;5052608;28;20823;-76
2021/06/22 02:38:31;;;;;;;1.83;0.80;;;16.20;1.00;16.70;100142.00;;;;5070282;28;20878;-76
2021/06/22 02:41:00;;;;;;;2.07;1.07;;;16.20;1.00;16.70;100143.00;;;;5052716;28;20531;-76
2021/06/22 02:43:34;;;;;;;1.30;0.87;;;16.20;1.00;16.70;100150.00;;;;5070573;28;20478;-76
2021/06/22 02:46:05;;;;;;;2.33;1.00;;;16.20;1.00;16.70;100138.00;;;;5069789;28;20469;-76
2021/06/22 02:48:34;;;;;;;1.60;0.90;;;16.10;1.00;16.60;100139.00;;;;5054252;28;20459;-76
2021/06/22 02:51:03;;;;;;;1.57;1.10;;;16.10;1.00;16.60;100139.00;;;;5053834;28;20463;-76
2021/06/22 02:53:39;;;;;;;1.60;0.97;;;16.00;1.00;16.50;100132.00;;;;5051754;28;21003;-76
2021/06/22 02:56:08;;;;;;;1.47;0.80;;;16.00;1.00;16.60;100143.00;;;;5050845;28;20489;-75
2021/06/22 02:58:37;;;;;;;1.40;0.90;;;15.90;1.00;16.50;100141.00;;;;5051894;28;20899;-76
2021/06/22 03:01:09;;;;;;;1.60;0.90;;;15.90;1.00;16.50;100111.00;;;;5053128;28;20440;-76
2021/06/22 03:03:38;;;;;;;1.30;0.90;;;15.90;1.00;16.60;100149.00;;;;5053456;28;20586;-76
2021/06/22 03:06:13;;;;;;;1.83;0.90;;;16.00;1.00;16.60;100128.00;;;;5056342;28;20455;-76
2021/06/22 03:08:51;;;;;;;2.63;1.30;;;16.00;1.00;16.60;100157.00;;;;5058880;28;21091;-76
2021/06/22 03:11:21;;;;;;;1.37;0.90;;;16.00;1.00;16.60;100129.00;;;;5054002;28;20459;-76
2021/06/22 03:13:50;;;;;;;1.30;1.00;;;16.00;1.00;16.60;100115.00;;;;5053881;28;20573;-76
2021/06/22 03:16:33;;;;;;;3.23;1.00;;;16.00;1.00;16.60;100144.00;;;;5053557;28;20480;-77
2021/06/22 03:19:02;;;;;;;3.73;1.60;;;16.00;1.00;16.60;100159.00;;;;5053522;28;20475;-76
2021/06/22 03:21:40;;;;;;;1.90;0.90;;;16.00;1.00;16.60;100149.00;;;;5053483;28;20865;-76
2021/06/22 03:24:11;;;;;;;1.97;1.13;;;16.00;1.00;16.50;100096.00;;;;5052724;28;20448;-76
2021/06/22 03:26:39;;;;;;;1.53;0.90;;;16.00;1.00;16.60;100134.00;;;;5053012;28;20440;-75
2021/06/22 03:29:08;;;;;;;1.63;1.00;;;16.00;1.00;16.60;100124.00;;;;5052487;28;20464;-76
2021/06/22 03:32:01;;;;;;;1.70;0.80;;;16.00;1.00;16.60;100137.00;;;;5052218;28;20471;-76
2021/06/22 03:34:29;;;;;;;2.77;1.23;;;16.00;1.00;16.60;100129.00;;;;5054300;28;20454;-75
2021/06/22 03:36:58;;;;;;;1.20;0.90;;;16.00;1.00;16.60;100127.00;;;;5034347;28;20476;-76
2021/06/22 03:39:28;;;;;;;1.67;1.10;;;16.00;1.00;16.60;100140.00;;;;5059023;28;20484;-75
2021/06/22 03:41:56;;;;;;;1.50;0.97;;;15.90;1.00;16.60;100145.00;;;;5039925;28;20464;-76
2021/06/22 03:44:25;;;;;;;2.10;1.13;;;16.00;1.00;16.60;100132.00;;;;5052352;28;20444;-77
2021/06/22 03:47:08;;;;;;;1.70;1.10;;;16.00;1.00;16.60;100130.00;;;;5035224;28;20541;-75
2021/06/22 03:49:36;;;;;;;1.80;0.83;;;16.00;1.00;16.70;100143.00;;;;5068076;28;20448;-76
2021/06/22 03:52:05;;;;;;;1.60;1.00;;;16.00;1.00;16.70;100133.00;;;;5052303;28;20460;-75
2021/06/22 03:54:36;;;;;;;2.40;0.77;;;16.00;1.00;16.70;100129.00;;;;5051701;28;20452;-76
2021/06/22 03:57:07;;;;;;;2.27;0.70;;;16.10;1.00;16.70;100136.00;;;;5052147;28;20888;-76
2021/06/22 03:59:57;;;;;;;1.10;0.70;;;16.20;1.00;16.80;100142.00;;;;5052296;28;21028;-77
2021/06/22 04:02:28;;;;;;;1.20;0.60;;;16.20;1.00;16.80;100135.00;;;;5051819;28;20559;-76
2021/06/22 04:04:56;;;;;;;1.30;0.77;;;16.20;1.00;16.90;100134.00;;;;5052105;28;20448;-77
2021/06/22 04:07:37;;;;;;;1.07;0.60;;;16.20;1.00;17.00;100140.00;;;;5050554;28;20519;-76
2021/06/22 04:10:11;;;;;;;1.30;0.90;;;16.30;1.00;17.00;100138.00;;;;5044482;28;20453;-76
2021/06/22 04:12:44;;;;;;;1.20;0.60;;;16.30;1.00;17.10;100097.00;;;;5052003;28;20482;-76
2021/06/22 04:15:13;;;;;;;1.20;0.70;;;16.40;1.00;17.20;100141.00;;;;5068892;28;20908;-76
2021/06/22 04:17:42;;;;;;;1.90;0.80;;;16.50;1.00;17.20;100141.00;;;;5052130;28;20455;-77
2021/06/22 04:20:14;;;;;;;2.03;0.90;;;16.50;1.00;17.20;100140.00;;;;5051871;28;20534;-76
2021/06/22 04:22:43;;;;;;;2.37;0.77;;;16.50;1.00;17.10;100096.00;;;;5050956;28;20467;-76
2021/06/22 04:25:18;;;;;;;1.93;0.90;;;16.40;1.00;17.20;100142.00;;;;5064433;28;20486;-76
2021/06/22 04:27:48;;;;;;;1.70;1.07;;;16.40;1.00;17.20;100139.00;;;;5051831;28;20534;-76
2021/06/22 04:30:16;;;;;;;1.40;0.80;;;16.40;1.00;17.20;100092.00;;;;5052642;28;20452;-76
2021/06/22 04:32:45;;;;;;;2.53;0.87;;;16.40;1.00;17.30;100138.00;;;;5052269;28;20468;-77
2021/06/22 04:35:14;;;;;;;1.20;0.80;;;16.50;1.00;17.60;100143.00;;;;5071391;28;20534;-77
2021/06/22 04:37:43;;;;;;;2.53;0.80;;;16.70;1.00;17.80;100056.00;;;;5061301;28;20443;-76
2021/06/22 04:40:13;;;;;;;2.60;0.93;;;16.90;1.00;17.90;100163.00;;;;5052780;28;20447;-76
2021/06/22 04:42:42;;;;;;;2.27;1.10;;;17.00;1.00;18.00;100166.00;;;;5050097;28;21025;-77
2021/06/22 04:45:12;;;;;;;2.03;0.83;;;17.10;1.00;17.90;100171.00;;;;5035812;28;20449;-76
2021/06/22 04:47:41;;;;;;;1.33;0.80;;;17.10;1.00;18.00;100152.00;;;;5050501;28;20499;-76
2021/06/22 04:50:10;;;;;;;3.30;0.80;;;17.20;1.00;18.10;100175.00;;;;5050380;28;20959;-76
2021/06/22 04:52:39;;;;;;;3.30;0.90;;;17.40;1.00;18.30;100132.00;;;;5050911;28;20468;-77
2021/06/22 04:55:13;;;;;;;2.00;1.00;;;17.50;1.00;18.50;100168.00;;;;5050081;28;20459;-77
2021/06/22 04:57:45;;;;;;;2.17;1.10;;;17.70;1.00;18.50;100153.00;;;;5051570;28;20562;-76
2021/06/22 05:00:16;;;;;;;1.30;0.97;;;17.70;1.00;18.30;100170.00;;;;5048070;28;21205;-78
2021/06/22 05:02:46;;;;;;;1.40;1.10;;;17.60;1.00;18.20;100166.00;;;;5049949;28;20571;-76
2021/06/22 05:05:15;;;;;;;1.80;0.87;;;17.60;1.00;18.10;100169.00;;;;5046687;28;20437;-76
2021/06/22 05:07:44;;;;;;;2.90;0.93;;;17.40;1.00;18.10;100139.00;;;;5051106;28;20537;-76
2021/06/22 05:10:13;;;;;;;1.80;1.00;;;17.40;1.00;17.90;100168.00;;;;5047024;28;20952;-76
2021/06/22 05:12:45;;;;;;;1.47;1.10;;;17.50;1.00;18.30;100142.00;;;;5052266;28;20472;-76
2021/06/22 05:15:19;;;;;;;2.57;1.23;;;17.60;1.00;18.20;100177.00;;;;5053033;28;20493;-77
2021/06/22 05:17:48;;;;;;;2.57;1.00;;;17.60;1.00;18.30;100191.00;;;;5053476;28;20444;-77
2021/06/22 05:20:17;;;;;;;2.20;1.20;;;17.60;1.00;18.30;100190.00;;;;5049941;28;20479;-75
2021/06/22 05:22:46;;;;;;;1.60;1.13;;;17.70;1.00;18.30;100206.00;;;;5048828;28;20937;-75
2021/06/22 05:25:15;;;;;;;2.07;1.10;;;17.60;1.00;17.80;100214.00;;;;5050264;28;20452;-76
2021/06/22 05:27:45;;;;;;;2.33;1.10;;;17.40;1.00;18.10;100203.00;;;;5051343;28;20447;-76
2021/06/22 05:30:15;;;;;;;1.20;0.77;;;17.40;1.00;18.00;100208.00;;;;5048499;28;20986;-76
2021/06/22 05:32:44;;;;;;;2.00;1.13;;;17.30;1.00;18.00;100202.00;;;;5056162;28;20472;-76
2021/06/22 05:35:13;;;;;;;3.17;1.20;;;17.30;1.00;18.00;100162.00;;;;5047824;28;20536;-76
2021/06/22 05:37:41;;;;;;;1.30;1.00;;;17.20;1.00;18.00;100164.00;;;;5052301;28;20822;-76
2021/06/22 05:40:11;;;;;;;1.90;1.00;;;17.10;1.00;18.00;100191.00;;;;5052360;28;20562;-75
2021/06/22 05:42:40;;;;;;;2.50;1.17;;;17.30;1.00;18.20;100195.00;;;;5047063;28;20472;-76
2021/06/22 05:45:11;;;;;;;2.00;0.97;;;17.40;1.00;18.30;100175.00;;;;5052137;28;20483;-76
2021/06/22 05:47:39;;;;;;;1.60;0.90;;;17.60;1.00;18.40;100171.00;;;;5053274;28;20452;-76
2021/06/22 05:50:09;;;;;;;1.90;1.20;;;17.70;1.00;18.60;100196.00;;;;5050378;28;20535;-77
2021/06/22 05:52:38;;;;;;;1.50;1.10;;;17.90;1.00;18.70;100209.00;;;;5051172;28;20492;-76
2021/06/22 05:55:16;;;;;;;1.70;1.20;;;18.00;1.00;18.80;100191.00;;;;5048590;28;20444;-76
2021/06/22 05:57:47;;;;;;;1.20;0.80;;;18.00;1.00;18.80;100221.00;;;;5048517;28;20984;-75
2021/06/22 06:00:20;;;;;;;1.60;1.00;;;17.90;1.00;18.80;100204.00;;;;5043245;28;20492;-74
2021/06/22 06:02:49;;;;;;;1.40;0.87;;;18.00;1.00;18.80;100208.00;;;;5067893;28;20563;-74
2021/06/22 06:05:18;;;;;;;1.60;1.00;;;18.10;1.00;18.80;100162.00;;;;5050748;28;20980;-76
2021/06/22 06:07:47;;;;;;;1.60;1.00;;;18.00;1.00;18.80;100193.00;;;;5049015;28;20460;-75
2021/06/22 06:10:17;;;;;;;4.50;1.30;;;18.10;1.00;18.90;100205.00;;;;5059928;28;20498;-75
2021/06/22 06:12:45;;;;;;;1.70;1.00;;;18.30;1.00;18.90;100201.00;;;;5046213;28;20475;-76
2021/06/22 06:15:17;;;;;;;1.70;1.47;;;18.40;1.00;19.40;100197.00;;;;5052932;28;20452;-76
2021/06/22 06:17:45;;;;;;;1.90;1.00;;;18.60;1.00;19.80;100205.00;;;;5053887;28;20448;-77
2021/06/22 06:20:15;;;;;;;2.90;0.90;;;18.90;1.00;19.80;100191.00;;;;5048563;28;20485;-76
2021/06/22 06:22:47;;;;;;;1.93;1.00;;;19.10;1.00;19.60;100220.00;;;;5048045;28;20551;-77
2021/06/22 06:25:16;;;;;;;1.50;0.97;;;18.90;1.00;19.50;100195.00;;;;5047570;28;20452;-77
2021/06/22 06:27:54;;;;;;;2.50;1.30;;;18.70;1.00;19.50;100207.00;;;;5051130;28;20458;-77
2021/06/22 06:30:28;;;;;;;2.43;1.20;;;18.80;1.00;19.30;100216.00;;;;5046048;28;20555;-77
2021/06/22 06:32:58;;;;;;;2.23;1.00;;;18.70;1.00;19.40;100199.00;;;;5046953;28;20496;-76
2021/06/22 06:35:27;;;;;;;1.77;1.23;;;18.70;1.00;19.50;100211.00;;;;5042527;28;20526;-77
2021/06/22 06:37:56;;;;;;;2.67;1.33;;;18.90;1.00;19.30;100193.00;;;;5049505;28;20455;-77
2021/06/22 06:40:25;;;;;;;1.90;1.20;;;18.80;1.00;19.30;100206.00;;;;5047797;28;21000;-77
2021/06/22 06:42:54;;;;;;;4.20;1.30;;;18.70;1.00;19.60;100207.00;;;;5051236;28;20507;-78
2021/06/22 06:45:23;;;;;;;1.90;1.10;;;18.90;1.00;19.70;100198.00;;;;5041340;28;20456;-76
2021/06/22 06:47:53;;;;;;;2.43;1.43;;;19.00;1.00;19.70;100204.00;;;;5055565;28;20451;-77
2021/06/22 06:50:21;;;;;;;2.33;1.10;;;19.10;1.00;19.90;100196.00;;;;5052740;28;20570;-76
2021/06/22 06:52:49;;;;;;;2.17;1.13;;;19.30;1.00;20.00;100189.00;;;;5056520;28;20471;-77
2021/06/22 06:55:27;;;;;;;2.00;1.33;;;19.40;1.00;20.30;100205.00;;;;5049955;28;20551;-77
2021/06/22 06:57:59;;;;;;;2.43;1.30;;;19.60;1.00;20.40;100195.00;;;;5081594;28;20449;-77
2021/06/22 07:00:31;;;;;;;2.07;1.10;;;19.70;1.00;20.60;100201.00;;;;5071108;28;20464;-76
2021/06/22 07:03:00;;;;;;;1.60;1.10;;;19.70;1.00;20.80;100208.00;;;;5049627;28;20553;-74
2021/06/22 07:05:29;;;;;;;1.50;1.00;;;19.90;1.00;20.80;100214.00;;;;5054033;28;20448;-75
2021/06/22 07:07:58;;;;;;;2.17;1.13;;;19.90;1.00;20.70;100227.00;;;;5055240;28;20452;-74
2021/06/22 07:10:27;;;;;;;5.43;1.23;;;19.70;1.00;20.60;100224.00;;;;5054519;28;20551;-75
2021/06/22 07:12:58;;;;;;;1.63;0.93;;;19.70;1.00;20.60;100226.00;;;;5052631;28;20533;-76
2021/06/22 07:15:28;;;;;;;1.70;1.20;;;19.80;1.00;20.90;100191.00;;;;5054012;28;20953;-76
2021/06/22 07:17:57;;;;;;;1.47;0.93;;;20.10;1.00;21.30;100210.00;;;;5047580;28;20444;-75
2021/06/22 07:20:26;;;;;;;3.50;1.10;;;20.40;1.00;21.30;100208.00;;;;5057671;28;20867;-75
2021/06/22 07:22:54;;;;;;;1.70;1.10;;;20.50;1.00;21.50;100223.00;;;;5053681;28;20558;-76
2021/06/22 07:25:25;;;;;;;2.60;1.20;;;20.70;1.00;21.20;100207.00;;;;5054674;28;20444;-76
2021/06/22 07:27:55;;;;;;;2.17;1.10;;;20.40;1.00;21.20;100217.00;;;;5055640;28;20435;-75
2021/06/22 07:30:26;;;;;;;1.93;1.13;;;20.50;1.00;21.20;100222.00;;;;5044048;28;20479;-76
2021/06/22 07:32:57;;;;;;;3.07;1.20;;;20.60;1.00;21.30;100233.00;;;;5048851;28;20571;-76
2021/06/22 07:35:28;;;;;;;2.30;1.23;;;20.50;1.00;21.50;100236.00;;;;5052387;28;20969;-76
2021/06/22 07:37:57;;;;;;;2.70;1.20;;;20.50;1.00;21.40;100227.00;;;;5051347;28;20474;-76
2021/06/22 07:40:25;;;;;;;1.50;1.10;;;20.50;1.00;21.60;100241.00;;;;5051994;28;20472;-76
2021/06/22 07:42:54;;;;;;;3.30;1.30;;;20.70;1.00;21.50;100228.00;;;;5067896;28;20471;-76
2021/06/22 07:45:23;;;;;;;5.00;1.00;;;20.70;1.00;21.70;100230.00;;;;5052750;28;20510;-75
2021/06/22 07:47:54;;;;;;;1.73;1.20;;;20.70;1.00;21.90;100245.00;;;;5053243;28;20843;-78
2021/06/22 07:50:25;;;;;;;1.57;1.20;;;20.90;1.00;22.20;100247.00;;;;5065123;28;20475;-78
2021/06/22 07:52:53;;;;;;;1.83;1.23;;;21.20;1.00;22.30;100238.00;;;;5056308;28;20558;-78
2021/06/22 07:55:23;;;;;;;2.27;1.10;;;21.30;1.00;22.30;100234.00;;;;5063368;28;20452;-77
2021/06/22 07:57:54;;;;;;;1.80;1.30;;;21.20;1.00;22.20;100242.00;;;;5082081;28;20970;-78
2021/06/22 08:00:42;;;;;;;1.43;0.83;;;21.10;1.00;22.20;100230.00;;;;5059537;28;20464;-78
2021/06/22 08:03:12;;;;;;;2.00;1.03;;;21.20;1.00;22.10;100232.00;;;;5051667;28;20476;-77
2021/06/22 08:05:43;;;;;;;1.90;1.10;;;21.30;1.00;22.30;100207.00;;;;5053936;28;20510;-79
2021/06/22 08:08:16;;;;;;;2.00;1.03;;;21.50;1.00;22.20;100232.00;;;;5065543;28;20567;-80
2021/06/22 08:10:46;;;;;;;2.90;1.23;;;21.20;1.00;21.90;100216.00;;;;5074297;28;20586;-77
2021/06/22 08:13:15;;;;;;;1.80;1.17;;;21.00;1.00;21.70;100245.00;;;;5061839;28;20511;-79
2021/06/22 08:15:44;;;;;;;2.20;1.17;;;20.80;1.00;21.80;100224.00;;;;5060409;28;20444;-79
2021/06/22 08:18:13;;;;;;;1.90;1.10;;;20.70;1.00;21.70;100234.00;;;;5077016;28;20885;-79
2021/06/22 08:20:45;;;;;;;1.97;1.33;;;20.80;1.00;22.00;100243.00;;;;5079130;28;20472;-78
2021/06/22 08:23:14;;;;;;;2.30;1.10;;;21.00;1.00;22.20;100241.00;;;;5059282;28;20480;-79
2021/06/22 08:25:42;;;;;;;2.33;1.10;;;21.10;1.00;22.50;100240.00;;;;5069589;28;20459;-79
2021/06/22 08:28:11;;;;;;;6.17;1.20;;;21.40;1.00;22.70;100198.00;;;;5081693;28;20449;-79
2021/06/22 08:30:40;;;;;;;1.97;1.20;;;21.70;1.00;23.00;100248.00;;;;5048712;28;20464;-80
2021/06/22 08:33:11;;;;;;;2.50;1.30;;;21.90;1.00;23.10;100238.00;;;;5080415;28;20483;-80
2021/06/22 08:35:42;;;;;;;2.03;1.43;;;21.90;1.00;23.40;100247.00;;;;5069398;28;20474;-79
2021/06/22 08:38:13;;;;;;;2.20;1.10;;;22.20;1.00;23.60;100239.00;;;;5063412;28;20516;-78
2021/06/22 08:40:44;;;;;;;1.60;1.20;;;22.40;1.00;23.80;100252.00;;;;5062664;28;20489;-78
2021/06/22 08:43:16;;;;;;;1.77;1.10;;;22.70;1.00;23.70;100206.00;;;;5062552;28;20543;-79
2021/06/22 08:45:46;;;;;;;1.93;1.20;;;22.70;1.00;23.50;100247.00;;;;5060525;28;20450;-77
2021/06/22 08:48:15;;;;;;;2.10;1.30;;;22.60;1.00;23.40;100227.00;;;;5078355;28;20444;-78
2021/06/22 08:50:47;;;;;;;2.90;1.37;;;22.30;1.00;23.10;100223.00;;;;5060815;28;20444;-78
2021/06/22 08:53:16;;;;;;;1.93;1.13;;;22.00;1.00;23.10;100242.00;;;;5064170;28;20468;-78
2021/06/22 08:55:46;;;;;;;3.63;1.33;;;21.90;1.00;23.00;100243.00;;;;5068608;28;20523;-78
2021/06/22 08:58:18;;;;;;;3.30;1.10;;;21.90;1.00;23.00;100085.00;;;;5069107;28;20466;-77
2021/06/22 09:00:49;;;;;;;2.70;1.30;;;21.80;1.00;23.00;100271.00;;;;5081920;28;20491;-78
2021/06/22 09:03:22;;;;;;;1.77;1.37;;;21.80;1.00;23.00;100226.00;;;;5082155;28;20482;-79
2021/06/22 09:05:55;;;;;;;2.93;1.77;;;21.90;1.00;22.90;100251.00;;;;5064444;28;20440;-79
2021/06/22 09:08:26;;;;;;;3.10;1.00;;;22.00;1.00;23.20;100245.00;;;;5064842;28;20476;-78
2021/06/22 09:11:05;;;;;;;2.27;1.27;;;22.10;1.00;23.50;100264.00;;;;5081537;28;20519;-77
2021/06/22 09:13:35;;;;;;;1.70;1.40;;;22.40;1.00;23.40;100268.00;;;;5072568;28;20546;-79
2021/06/22 09:16:05;;;;;;;2.07;1.20;;;22.60;1.00;23.50;100218.00;;;;5057399;28;20897;-80
2021/06/22 09:18:36;;;;;;;3.50;1.53;;;22.60;1.00;23.50;100223.00;;;;5054140;28;20949;-79
2021/06/22 09:21:07;;;;;;;2.37;1.20;;;22.50;1.00;23.70;100257.00;;;;5084445;28;20459;-78
2021/06/22 09:23:38;;;;;;;2.47;1.53;;;22.60;1.00;23.60;100221.00;;;;5072154;28;20563;-79
2021/06/22 09:26:12;;;;;;;3.37;1.60;;;22.30;1.00;23.70;100251.00;;;;5057946;28;20450;-78
2021/06/22 09:28:42;;;;;;;2.03;1.20;;;22.50;1.00;23.70;100204.00;;;;5058048;28;20462;-79
2021/06/22 09:31:12;;;;;;;2.77;1.33;;;22.50;1.00;23.60;100250.00;;;;5055463;28;20459;-80
2021/06/22 09:33:43;;;;;;;2.10;1.40;;;22.60;1.00;23.60;100257.00;;;;5057906;28;21080;-79
2021/06/22 09:36:16;;;;;;;1.70;1.50;;;22.60;1.00;23.30;100273.00;;;;5061325;28;20474;-77
2021/06/22 09:38:50;;;;;;;2.50;1.40;;;22.50;1.00;23.40;100232.00;;;;5065353;28;20451;-78
2021/06/22 09:41:26;;;;;;;2.00;1.50;;;22.40;1.00;23.50;100240.00;;;;5058492;28;20949;-78
2021/06/22 09:44:01;;;;;;;4.77;1.43;;;22.40;1.00;23.60;100253.00;;;;5058443;28;20459;-78
2021/06/22 09:46:37;;;;;;;2.70;1.23;;;22.60;1.00;23.80;100249.00;;;;5056977;28;20487;-78
2021/06/22 09:49:07;;;;;;;1.90;1.37;;;22.80;1.00;23.80;100247.00;;;;5064011;28;20451;-79
2021/06/22 09:51:45;;;;;;;4.80;1.60;;;22.80;1.00;23.80;100240.00;;;;5067710;28;20476;-79
2021/06/22 09:54:20;;;;;;;2.10;1.33;;;22.70;1.00;23.90;100261.00;;;;5063695;28;20550;-78
2021/06/22 09:57:02;;;;;;;2.63;1.50;;;22.80;1.00;24.00;100267.00;;;;5061395;28;20478;-78
2021/06/22 09:59:33;;;;;;;2.27;1.40;;;23.00;1.00;24.10;100269.00;;;;5061988;28;20451;-78
2021/06/22 10:02:10;;;;;;;1.73;1.30;;;23.00;1.00;24.00;100270.00;;;;5065600;28;20537;-79
2021/06/22 10:04:44;;;;;;;2.60;1.50;;;22.80;1.00;23.80;100224.00;;;;5065201;28;20452;-79
2021/06/22 10:07:17;;;;;;;1.97;1.40;;;22.70;1.00;23.90;100237.00;;;;5058288;28;20472;-78
2021/06/22 10:09:53;;;;;;;4.13;2.13;;;22.80;1.00;23.90;100273.00;;;;5059568;28;20472;-79
2021/06/22 10:12:26;;;;;;;2.13;1.43;;;22.80;1.00;23.80;100285.00;;;;5061456;28;20471;-79
2021/06/22 10:14:57;;;;;;;1.70;1.40;;;22.70;1.00;23.70;100274.00;;;;5067268;28;20499;-77
2021/06/22 10:17:29;;;;;;;5.33;1.33;;;22.60;1.00;23.50;100274.00;;;;5073345;28;20441;-78
2021/06/22 10:19:59;;;;;;;3.20;1.40;;;22.50;1.00;23.40;100268.00;;;;5066879;28;20965;-78
2021/06/22 10:22:31;;;;;;;2.63;1.40;;;22.50;1.00;23.60;100243.00;;;;5059037;28;20497;-79
2021/06/22 10:25:02;;;;;;;2.63;1.50;;;22.50;1.00;23.50;100261.00;;;;5061952;28;20451;-79
2021/06/22 10:27:32;;;;;;;3.70;1.70;;;22.50;1.00;23.40;100292.00;;;;5061994;28;20456;-79
2021/06/22 10:30:05;;;;;;;4.77;1.70;;;22.40;1.00;23.30;100255.00;;;;5060537;28;20487;-79
2021/06/22 10:32:34;;;;;;;5.43;1.87;;;22.30;1.00;23.30;100285.00;;;;5054580;28;20496;-79
2021/06/22 10:35:12;;;;;;;2.70;1.93;;;22.30;1.00;23.30;100269.00;;;;5060635;28;20458;-78
2021/06/22 10:37:48;;;;;;;1.80;1.57;;;22.40;1.00;23.50;100254.00;;;;5076059;28;20968;-78
2021/06/22 10:40:22;;;;;;;2.10;1.73;;;22.50;1.00;23.80;100254.00;;;;5073052;28;20547;-78
2021/06/22 10:42:53;;;;;;;3.27;1.87;;;22.70;1.00;24.20;100254.00;;;;5058781;28;20582;-78
2021/06/22 10:45:55;;;;;;;3.60;1.77;;;23.10;1.00;24.90;100242.00;;;;5060277;28;20456;-79
2021/06/22 10:48:23;;;;;;;2.80;1.80;;;23.70;1.00;25.10;100213.00;;;;5062326;28;20479;-78
2021/06/22 10:50:52;;;;;;;2.90;2.20;;;24.00;1.00;25.30;100223.00;;;;5060034;28;20479;-78
2021/06/22 10:53:42;;;;;;;1.73;1.50;;;24.00;1.00;25.60;100211.00;;;;5060723;28;20894;-79
2021/06/22 10:56:19;;;;;;;1.87;1.67;;;24.20;1.00;25.50;100272.00;;;;5064139;28;20448;-79
2021/06/22 10:59:23;;;;;;;1.60;1.30;;;24.10;1.00;25.30;100280.00;;;;5061091;28;20474;-79
2021/06/22 11:02:08;;;;;;;1.80;1.50;;;24.00;1.00;25.20;100275.00;;;;5069808;28;21053;-79
2021/06/22 11:04:37;;;;;;;1.97;1.23;;;24.00;1.00;25.00;100290.00;;;;5065036;28;20451;-79
2021/06/22 11:07:23;;;;;;;2.93;1.80;;;23.80;1.00;24.90;100295.00;;;;5084759;28;20851;-79
2021/06/22 11:10:14;;;;;;;2.07;1.73;;;23.80;1.00;25.10;100271.00;;;;5070637;28;20444;-78
2021/06/22 11:12:54;;;;;;;2.10;1.70;;;24.00;1.00;25.50;100260.00;;;;5061562;28;20476;-79
2021/06/22 11:15:23;;;;;;;2.80;1.37;;;24.40;1.00;25.90;100256.00;;;;5070181;28;20471;-79